sensor_id;sensor_type;location;lat;lon;timestamp;temperature;humidity
51327;DHT22;37412;52.836;6.362;2023-11-21T00:01:44;8.80;99.90
51327;DHT22;37412;52.836;6.362;2023-11-21T00:04:30;8.80;99.90
51327;DHT22;37412;52.836;6.362;2023-11-21T00:07:16;8.80;99.90
51327;DHT22;37412;52.836;6.362;2023-11-21T00:10:03;8.80;99.90
51327;DHT22;37412;52.836;6.362;2023-11-21T00:12:50;8.80;99.90
51327;DHT22;37412;52.836;6.362;2023-11-21T00:15:36;8.80;99.90
51327;DHT22;37412;52.836;6.362;2023-11-21T00:18:22;8.80;99.90
51327;DHT22;37412;52.836;6.362;2023-11-21T00:21:09;8.70;99.90
51327;DHT22;37412;52.836;6.362;2023-11-21T00:23:58;8.80;99.90
51327;DHT22;37412;52.836;6.362;2023-11-21T00:26:44;8.80;99.90
51327;DHT22;37412;52.836;6.362;2023-11-21T00:29:30;8.80;99.90
51327;DHT22;37412;52.836;6.362;2023-11-21T00:32:16;8.80;99.90
51327;DHT22;37412;52.836;6.362;2023-11-21T00:35:02;8.80;99.90
51327;DHT22;37412;52.836;6.362;2023-11-21T00:37:48;8.80;99.90
51327;DHT22;37412;52.836;6.362;2023-11-21T00:40:35;8.80;99.90
51327;DHT22;37412;52.836;6.362;2023-11-21T00:43:24;8.90;99.90
51327;DHT22;37412;52.836;6.362;2023-11-21T00:46:10;9.60;99.90
51327;DHT22;37412;52.836;6.362;2023-11-21T00:48:56;8.90;99.90
51327;DHT22;37412;52.836;6.362;2023-11-21T00:51:42;8.90;99.90
51327;DHT22;37412;52.836;6.362;2023-11-21T00:54:28;8.90;99.90
51327;DHT22;37412;52.836;6.362;2023-11-21T00:57:14;9.00;99.90
51327;DHT22;37412;52.836;6.362;2023-11-21T01:00:00;8.90;99.90
51327;DHT22;37412;52.836;6.362;2023-11-21T01:02:47;8.90;99.90
51327;DHT22;37412;52.836;6.362;2023-11-21T01:05:34;9.00;99.90
51327;DHT22;37412;52.836;6.362;2023-11-21T01:08:20;9.00;99.90
51327;DHT22;37412;52.836;6.362;2023-11-21T01:11:07;9.00;99.90
51327;DHT22;37412;52.836;6.362;2023-11-21T01:13:57;8.90;99.90
51327;DHT22;37412;52.836;6.362;2023-11-21T01:16:45;9.00;99.90
51327;DHT22;37412;52.836;6.362;2023-11-21T01:19:31;8.90;99.90
51327;DHT22;37412;52.836;6.362;2023-11-21T01:22:17;9.00;99.90
51327;DHT22;37412;52.836;6.362;2023-11-21T01:25:06;9.00;99.90
51327;DHT22;37412;52.836;6.362;2023-11-21T01:27:53;9.00;99.90
51327;DHT22;37412;52.836;6.362;2023-11-21T01:30:38;9.00;99.90
51327;DHT22;37412;52.836;6.362;2023-11-21T01:33:24;9.00;99.90
51327;DHT22;37412;52.836;6.362;2023-11-21T01:36:10;9.00;99.90
51327;DHT22;37412;52.836;6.362;2023-11-21T01:38:56;9.00;99.90
51327;DHT22;37412;52.836;6.362;2023-11-21T01:41:44;9.00;99.90
51327;DHT22;37412;52.836;6.362;2023-11-21T01:44:30;9.00;99.90
51327;DHT22;37412;52.836;6.362;2023-11-21T01:47:16;9.00;99.90
51327;DHT22;37412;52.836;6.362;2023-11-21T01:50:03;9.00;99.90
51327;DHT22;37412;52.836;6.362;2023-11-21T01:52:52;9.00;99.90
51327;DHT22;37412;52.836;6.362;2023-11-21T01:55:38;9.00;99.90
51327;DHT22;37412;52.836;6.362;2023-11-21T01:58:25;9.10;99.90
51327;DHT22;37412;52.836;6.362;2023-11-21T02:01:11;9.10;99.90
51327;DHT22;37412;52.836;6.362;2023-11-21T02:03:57;9.00;99.90
51327;DHT22;37412;52.836;6.362;2023-11-21T02:06:43;9.00;99.90
51327;DHT22;37412;52.836;6.362;2023-11-21T02:09:30;9.00;99.90
51327;DHT22;37412;52.836;6.362;2023-11-21T02:12:16;9.00;99.90
51327;DHT22;37412;52.836;6.362;2023-11-21T02:15:02;8.90;99.90
51327;DHT22;37412;52.836;6.362;2023-11-21T02:17:50;8.90;99.90
51327;DHT22;37412;52.836;6.362;2023-11-21T02:20:39;8.90;99.90
51327;DHT22;37412;52.836;6.362;2023-11-21T02:23:27;8.90;99.90
51327;DHT22;37412;52.836;6.362;2023-11-21T02:26:14;8.90;99.90
51327;DHT22;37412;52.836;6.362;2023-11-21T02:29:00;8.90;99.90
51327;DHT22;37412;52.836;6.362;2023-11-21T02:31:46;8.90;99.90
51327;DHT22;37412;52.836;6.362;2023-11-21T02:34:35;8.90;99.90
51327;DHT22;37412;52.836;6.362;2023-11-21T02:37:21;8.90;99.90
51327;DHT22;37412;52.836;6.362;2023-11-21T02:40:08;9.00;99.90
51327;DHT22;37412;52.836;6.362;2023-11-21T02:42:55;8.90;99.90
51327;DHT22;37412;52.836;6.362;2023-11-21T02:45:43;9.00;99.90
51327;DHT22;37412;52.836;6.362;2023-11-21T02:48:29;9.00;99.90
51327;DHT22;37412;52.836;6.362;2023-11-21T02:51:16;8.90;99.90
51327;DHT22;37412;52.836;6.362;2023-11-21T02:54:02;9.00;99.90
51327;DHT22;37412;52.836;6.362;2023-11-21T02:56:55;9.00;99.90
51327;DHT22;37412;52.836;6.362;2023-11-21T02:59:40;9.00;99.90
51327;DHT22;37412;52.836;6.362;2023-11-21T03:02:26;8.90;99.90
51327;DHT22;37412;52.836;6.362;2023-11-21T03:05:12;9.00;99.90
51327;DHT22;37412;52.836;6.362;2023-11-21T03:08:01;9.30;99.90
51327;DHT22;37412;52.836;6.362;2023-11-21T03:10:47;9.00;99.90
51327;DHT22;37412;52.836;6.362;2023-11-21T03:13:33;9.00;99.90
51327;DHT22;37412;52.836;6.362;2023-11-21T03:16:20;9.00;99.90
51327;DHT22;37412;52.836;6.362;2023-11-21T03:19:06;9.00;99.90
51327;DHT22;37412;52.836;6.362;2023-11-21T03:21:53;9.00;99.90
51327;DHT22;37412;52.836;6.362;2023-11-21T03:24:41;9.00;99.90
51327;DHT22;37412;52.836;6.362;2023-11-21T03:27:27;9.00;99.90
51327;DHT22;37412;52.836;6.362;2023-11-21T03:30:14;9.10;99.90
51327;DHT22;37412;52.836;6.362;2023-11-21T03:33:00;8.90;99.90
51327;DHT22;37412;52.836;6.362;2023-11-21T03:35:46;9.00;99.90
51327;DHT22;37412;52.836;6.362;2023-11-21T03:38:32;9.00;99.90
51327;DHT22;37412;52.836;6.362;2023-11-21T03:41:18;9.00;99.90
51327;DHT22;37412;52.836;6.362;2023-11-21T03:44:04;9.00;99.90
51327;DHT22;37412;52.836;6.362;2023-11-21T03:46:50;9.00;99.90
51327;DHT22;37412;52.836;6.362;2023-11-21T03:49:35;9.00;99.90
51327;DHT22;37412;52.836;6.362;2023-11-21T03:52:21;8.90;99.90
51327;DHT22;37412;52.836;6.362;2023-11-21T03:55:07;9.00;99.90
51327;DHT22;37412;52.836;6.362;2023-11-21T03:57:53;8.90;99.90
51327;DHT22;37412;52.836;6.362;2023-11-21T04:00:39;9.00;99.90
51327;DHT22;37412;52.836;6.362;2023-11-21T04:03:25;8.90;99.90
51327;DHT22;37412;52.836;6.362;2023-11-21T04:06:11;9.10;99.90
51327;DHT22;37412;52.836;6.362;2023-11-21T04:08:56;9.10;99.90
51327;DHT22;37412;52.836;6.362;2023-11-21T04:11:42;9.00;99.90
51327;DHT22;37412;52.836;6.362;2023-11-21T04:14:29;9.00;99.90
51327;DHT22;37412;52.836;6.362;2023-11-21T04:17:17;9.00;99.90
51327;DHT22;37412;52.836;6.362;2023-11-21T04:20:04;9.00;99.90
51327;DHT22;37412;52.836;6.362;2023-11-21T04:22:54;9.00;99.90
51327;DHT22;37412;52.836;6.362;2023-11-21T04:25:40;9.50;99.90
51327;DHT22;37412;52.836;6.362;2023-11-21T04:28:25;9.10;99.90
51327;DHT22;37412;52.836;6.362;2023-11-21T04:31:14;9.00;99.90
51327;DHT22;37412;52.836;6.362;2023-11-21T04:34:02;9.10;99.90
51327;DHT22;37412;52.836;6.362;2023-11-21T04:36:49;9.10;99.90
51327;DHT22;37412;52.836;6.362;2023-11-21T04:39:35;9.00;99.90
51327;DHT22;37412;52.836;6.362;2023-11-21T04:42:21;9.10;99.90
51327;DHT22;37412;52.836;6.362;2023-11-21T04:45:07;9.00;99.90
51327;DHT22;37412;52.836;6.362;2023-11-21T04:47:57;9.10;99.90
51327;DHT22;37412;52.836;6.362;2023-11-21T04:50:43;9.10;99.90
51327;DHT22;37412;52.836;6.362;2023-11-21T04:53:29;9.10;99.90
51327;DHT22;37412;52.836;6.362;2023-11-21T04:56:16;9.10;99.90
51327;DHT22;37412;52.836;6.362;2023-11-21T04:59:01;9.00;99.90
51327;DHT22;37412;52.836;6.362;2023-11-21T05:01:47;9.10;99.90
51327;DHT22;37412;52.836;6.362;2023-11-21T05:04:33;9.10;99.90
51327;DHT22;37412;52.836;6.362;2023-11-21T05:07:19;9.00;99.90
51327;DHT22;37412;52.836;6.362;2023-11-21T05:10:14;9.00;99.90
51327;DHT22;37412;52.836;6.362;2023-11-21T05:13:00;9.10;99.90
51327;DHT22;37412;52.836;6.362;2023-11-21T05:15:46;9.00;99.90
51327;DHT22;37412;52.836;6.362;2023-11-21T05:18:32;9.00;99.90
51327;DHT22;37412;52.836;6.362;2023-11-21T05:21:18;9.10;99.90
51327;DHT22;37412;52.836;6.362;2023-11-21T05:24:06;9.10;99.90
51327;DHT22;37412;52.836;6.362;2023-11-21T05:26:52;9.10;99.90
51327;DHT22;37412;52.836;6.362;2023-11-21T05:29:38;9.10;99.90
51327;DHT22;37412;52.836;6.362;2023-11-21T05:32:24;9.10;99.90
51327;DHT22;37412;52.836;6.362;2023-11-21T05:35:10;9.00;99.90
51327;DHT22;37412;52.836;6.362;2023-11-21T05:38:04;9.10;99.90
51327;DHT22;37412;52.836;6.362;2023-11-21T05:40:50;9.10;99.90
51327;DHT22;37412;52.836;6.362;2023-11-21T05:43:36;9.10;99.90
51327;DHT22;37412;52.836;6.362;2023-11-21T05:46:22;9.10;99.90
51327;DHT22;37412;52.836;6.362;2023-11-21T05:49:08;9.10;99.90
51327;DHT22;37412;52.836;6.362;2023-11-21T05:51:54;9.20;99.90
51327;DHT22;37412;52.836;6.362;2023-11-21T05:54:40;9.10;99.90
51327;DHT22;37412;52.836;6.362;2023-11-21T05:57:26;9.10;99.90
51327;DHT22;37412;52.836;6.362;2023-11-21T06:00:12;9.00;99.90
51327;DHT22;37412;52.836;6.362;2023-11-21T06:03:01;9.10;99.90
51327;DHT22;37412;52.836;6.362;2023-11-21T06:05:47;9.10;99.90
51327;DHT22;37412;52.836;6.362;2023-11-21T06:08:34;9.00;99.90
51327;DHT22;37412;52.836;6.362;2023-11-21T06:11:20;9.00;99.90
51327;DHT22;37412;52.836;6.362;2023-11-21T06:14:05;9.10;99.90
51327;DHT22;37412;52.836;6.362;2023-11-21T06:16:53;9.10;99.90
51327;DHT22;37412;52.836;6.362;2023-11-21T06:19:41;9.10;99.90
51327;DHT22;37412;52.836;6.362;2023-11-21T06:22:27;9.10;99.90
51327;DHT22;37412;52.836;6.362;2023-11-21T06:25:13;9.00;99.90
51327;DHT22;37412;52.836;6.362;2023-11-21T06:27:59;9.10;99.90
51327;DHT22;37412;52.836;6.362;2023-11-21T06:30:45;9.10;99.90
51327;DHT22;37412;52.836;6.362;2023-11-21T06:33:32;9.10;99.90
51327;DHT22;37412;52.836;6.362;2023-11-21T06:36:18;9.10;99.90
51327;DHT22;37412;52.836;6.362;2023-11-21T06:39:03;9.10;99.90
51327;DHT22;37412;52.836;6.362;2023-11-21T06:41:54;9.10;99.90
51327;DHT22;37412;52.836;6.362;2023-11-21T06:44:40;9.20;99.90
51327;DHT22;37412;52.836;6.362;2023-11-21T06:47:27;9.10;99.90
51327;DHT22;37412;52.836;6.362;2023-11-21T06:50:15;9.10;99.90
51327;DHT22;37412;52.836;6.362;2023-11-21T06:53:01;9.10;99.90
51327;DHT22;37412;52.836;6.362;2023-11-21T06:55:49;9.10;99.90
51327;DHT22;37412;52.836;6.362;2023-11-21T06:58:35;9.10;99.90
51327;DHT22;37412;52.836;6.362;2023-11-21T07:01:24;9.10;99.90
51327;DHT22;37412;52.836;6.362;2023-11-21T07:04:10;9.10;99.90
51327;DHT22;37412;52.836;6.362;2023-11-21T07:06:56;9.10;99.90
51327;DHT22;37412;52.836;6.362;2023-11-21T07:09:43;9.10;99.90
51327;DHT22;37412;52.836;6.362;2023-11-21T07:12:30;9.10;99.90
51327;DHT22;37412;52.836;6.362;2023-11-21T07:15:16;9.10;99.90
51327;DHT22;37412;52.836;6.362;2023-11-21T07:18:02;9.20;99.90
51327;DHT22;37412;52.836;6.362;2023-11-21T07:20:48;9.10;99.90
51327;DHT22;37412;52.836;6.362;2023-11-21T07:23:34;9.10;99.90
51327;DHT22;37412;52.836;6.362;2023-11-21T07:26:20;9.10;99.90
51327;DHT22;37412;52.836;6.362;2023-11-21T07:29:06;9.10;99.90
51327;DHT22;37412;52.836;6.362;2023-11-21T07:31:52;9.10;99.90
51327;DHT22;37412;52.836;6.362;2023-11-21T07:34:38;9.10;99.90
51327;DHT22;37412;52.836;6.362;2023-11-21T07:37:24;9.10;99.90
51327;DHT22;37412;52.836;6.362;2023-11-21T07:40:11;9.10;99.90
51327;DHT22;37412;52.836;6.362;2023-11-21T07:42:57;9.10;99.90
51327;DHT22;37412;52.836;6.362;2023-11-21T07:45:43;9.10;99.90
51327;DHT22;37412;52.836;6.362;2023-11-21T07:48:29;9.10;99.90
51327;DHT22;37412;52.836;6.362;2023-11-21T07:51:15;9.10;99.90
51327;DHT22;37412;52.836;6.362;2023-11-21T07:54:01;9.10;99.90
51327;DHT22;37412;52.836;6.362;2023-11-21T07:56:47;9.70;99.90
51327;DHT22;37412;52.836;6.362;2023-11-21T07:59:34;9.10;99.90
51327;DHT22;37412;52.836;6.362;2023-11-21T08:02:20;9.10;99.90
51327;DHT22;37412;52.836;6.362;2023-11-21T08:05:06;9.10;99.90
51327;DHT22;37412;52.836;6.362;2023-11-21T08:07:52;9.10;99.90
51327;DHT22;37412;52.836;6.362;2023-11-21T08:10:38;9.10;99.90
51327;DHT22;37412;52.836;6.362;2023-11-21T08:13:28;9.30;99.90
51327;DHT22;37412;52.836;6.362;2023-11-21T08:16:16;9.20;99.90
51327;DHT22;37412;52.836;6.362;2023-11-21T08:19:02;9.20;99.90
51327;DHT22;37412;52.836;6.362;2023-11-21T08:21:48;9.20;99.90
51327;DHT22;37412;52.836;6.362;2023-11-21T08:24:34;9.30;99.90
51327;DHT22;37412;52.836;6.362;2023-11-21T08:27:20;9.20;99.90
51327;DHT22;37412;52.836;6.362;2023-11-21T08:30:06;9.20;99.90
51327;DHT22;37412;52.836;6.362;2023-11-21T08:32:52;9.20;99.90
51327;DHT22;37412;52.836;6.362;2023-11-21T08:35:39;9.20;99.90
51327;DHT22;37412;52.836;6.362;2023-11-21T08:38:25;9.40;99.90
51327;DHT22;37412;52.836;6.362;2023-11-21T08:41:11;9.20;99.90
51327;DHT22;37412;52.836;6.362;2023-11-21T08:43:56;9.20;99.90
51327;DHT22;37412;52.836;6.362;2023-11-21T08:46:44;9.20;99.90
51327;DHT22;37412;52.836;6.362;2023-11-21T08:49:30;9.20;99.90
51327;DHT22;37412;52.836;6.362;2023-11-21T08:52:16;9.20;99.90
51327;DHT22;37412;52.836;6.362;2023-11-21T08:55:02;9.20;99.90
51327;DHT22;37412;52.836;6.362;2023-11-21T08:57:53;9.20;99.90
51327;DHT22;37412;52.836;6.362;2023-11-21T09:00:39;9.20;99.90
51327;DHT22;37412;52.836;6.362;2023-11-21T09:03:25;9.20;99.90
51327;DHT22;37412;52.836;6.362;2023-11-21T09:06:11;9.20;99.90
51327;DHT22;37412;52.836;6.362;2023-11-21T09:08:57;9.70;99.90
51327;DHT22;37412;52.836;6.362;2023-11-21T09:11:43;9.20;99.90
51327;DHT22;37412;52.836;6.362;2023-11-21T09:14:31;9.70;99.90
51327;DHT22;37412;52.836;6.362;2023-11-21T09:17:17;9.10;99.90
51327;DHT22;37412;52.836;6.362;2023-11-21T09:20:06;9.10;99.90
51327;DHT22;37412;52.836;6.362;2023-11-21T09:22:55;9.10;99.90
51327;DHT22;37412;52.836;6.362;2023-11-21T09:25:42;9.10;99.90
51327;DHT22;37412;52.836;6.362;2023-11-21T09:28:31;9.00;99.90
51327;DHT22;37412;52.836;6.362;2023-11-21T09:31:18;9.00;99.90
51327;DHT22;37412;52.836;6.362;2023-11-21T09:34:08;9.00;99.90
51327;DHT22;37412;52.836;6.362;2023-11-21T09:36:57;9.00;99.90
51327;DHT22;37412;52.836;6.362;2023-11-21T09:39:42;8.90;99.90
51327;DHT22;37412;52.836;6.362;2023-11-21T09:42:30;8.90;99.90
51327;DHT22;37412;52.836;6.362;2023-11-21T09:45:24;8.80;99.90
51327;DHT22;37412;52.836;6.362;2023-11-21T09:48:11;8.80;99.90
51327;DHT22;37412;52.836;6.362;2023-11-21T09:50:57;8.80;99.90
51327;DHT22;37412;52.836;6.362;2023-11-21T09:53:44;8.80;99.90
51327;DHT22;37412;52.836;6.362;2023-11-21T09:56:31;8.80;99.90
51327;DHT22;37412;52.836;6.362;2023-11-21T09:59:17;9.00;99.90
51327;DHT22;37412;52.836;6.362;2023-11-21T10:02:05;8.80;99.90
51327;DHT22;37412;52.836;6.362;2023-11-21T10:04:53;8.80;99.90
51327;DHT22;37412;52.836;6.362;2023-11-21T10:07:40;8.80;99.90
51327;DHT22;37412;52.836;6.362;2023-11-21T10:10:27;8.80;99.90
51327;DHT22;37412;52.836;6.362;2023-11-21T10:13:14;8.80;99.90
51327;DHT22;37412;52.836;6.362;2023-11-21T10:16:03;8.90;99.90
51327;DHT22;37412;52.836;6.362;2023-11-21T10:18:51;8.90;99.90
51327;DHT22;37412;52.836;6.362;2023-11-21T10:21:38;8.90;99.90
51327;DHT22;37412;52.836;6.362;2023-11-21T10:24:25;8.90;99.90
51327;DHT22;37412;52.836;6.362;2023-11-21T10:27:10;8.90;99.90
51327;DHT22;37412;52.836;6.362;2023-11-21T10:29:56;8.90;99.90
51327;DHT22;37412;52.836;6.362;2023-11-21T10:32:42;8.90;99.90
51327;DHT22;37412;52.836;6.362;2023-11-21T10:35:38;8.90;99.90
51327;DHT22;37412;52.836;6.362;2023-11-21T10:38:24;8.90;99.90
51327;DHT22;37412;52.836;6.362;2023-11-21T10:41:12;8.90;99.90
51327;DHT22;37412;52.836;6.362;2023-11-21T10:44:01;8.80;99.90
51327;DHT22;37412;52.836;6.362;2023-11-21T10:46:50;8.80;99.90
51327;DHT22;37412;52.836;6.362;2023-11-21T10:49:36;9.10;99.90
51327;DHT22;37412;52.836;6.362;2023-11-21T10:52:26;8.90;99.90
51327;DHT22;37412;52.836;6.362;2023-11-21T10:55:18;8.90;99.90
51327;DHT22;37412;52.836;6.362;2023-11-21T10:58:07;8.90;99.90
51327;DHT22;37412;52.836;6.362;2023-11-21T11:00:56;8.90;99.90
51327;DHT22;37412;52.836;6.362;2023-11-21T11:03:43;8.90;99.90
51327;DHT22;37412;52.836;6.362;2023-11-21T11:06:29;8.80;99.90
51327;DHT22;37412;52.836;6.362;2023-11-21T11:09:18;8.80;99.90
51327;DHT22;37412;52.836;6.362;2023-11-21T11:12:04;8.80;99.90
51327;DHT22;37412;52.836;6.362;2023-11-21T11:14:50;8.80;99.90
51327;DHT22;37412;52.836;6.362;2023-11-21T11:17:36;8.70;99.90
51327;DHT22;37412;52.836;6.362;2023-11-21T11:20:25;8.70;99.90
51327;DHT22;37412;52.836;6.362;2023-11-21T11:31:59;8.70;99.90
51327;DHT22;37412;52.836;6.362;2023-11-21T11:34:53;8.70;99.90
51327;DHT22;37412;52.836;6.362;2023-11-21T11:37:42;8.70;99.90
51327;DHT22;37412;52.836;6.362;2023-11-21T11:40:41;8.60;99.90
51327;DHT22;37412;52.836;6.362;2023-11-21T11:43:30;8.70;99.90
51327;DHT22;37412;52.836;6.362;2023-11-21T11:46:18;8.70;99.90
51327;DHT22;37412;52.836;6.362;2023-11-21T11:49:07;8.70;99.90
51327;DHT22;37412;52.836;6.362;2023-11-21T11:54:59;8.90;99.90
51327;DHT22;37412;52.836;6.362;2023-11-21T11:57:46;9.00;99.90
51327;DHT22;37412;52.836;6.362;2023-11-21T12:00:36;8.90;99.90
51327;DHT22;37412;52.836;6.362;2023-11-21T12:03:25;8.90;99.90
51327;DHT22;37412;52.836;6.362;2023-11-21T12:06:11;8.80;99.90
51327;DHT22;37412;52.836;6.362;2023-11-21T12:09:00;9.20;99.90
51327;DHT22;37412;52.836;6.362;2023-11-21T12:11:47;8.70;99.90
51327;DHT22;37412;52.836;6.362;2023-11-21T12:14:33;8.70;99.90
51327;DHT22;37412;52.836;6.362;2023-11-21T12:17:19;8.70;99.90
51327;DHT22;37412;52.836;6.362;2023-11-21T12:20:05;8.70;99.90
51327;DHT22;37412;52.836;6.362;2023-11-21T12:23:00;8.70;99.90
51327;DHT22;37412;52.836;6.362;2023-11-21T12:25:46;8.70;99.90
51327;DHT22;37412;52.836;6.362;2023-11-21T12:28:31;8.70;99.90
51327;DHT22;37412;52.836;6.362;2023-11-21T12:31:18;8.70;99.90
51327;DHT22;37412;52.836;6.362;2023-11-21T12:34:04;8.70;99.90
51327;DHT22;37412;52.836;6.362;2023-11-21T12:36:52;8.80;99.90
51327;DHT22;37412;52.836;6.362;2023-11-21T12:39:40;9.10;99.90
51327;DHT22;37412;52.836;6.362;2023-11-21T12:42:26;9.40;99.90
51327;DHT22;37412;52.836;6.362;2023-11-21T12:48:04;9.70;99.90
51327;DHT22;37412;52.836;6.362;2023-11-21T12:50:54;10.00;99.90
51327;DHT22;37412;52.836;6.362;2023-11-21T12:53:41;9.80;99.90
51327;DHT22;37412;52.836;6.362;2023-11-21T12:56:27;9.60;99.90
51327;DHT22;37412;52.836;6.362;2023-11-21T12:59:13;9.50;99.90
51327;DHT22;37412;52.836;6.362;2023-11-21T13:02:00;9.40;99.90
51327;DHT22;37412;52.836;6.362;2023-11-21T13:04:53;9.30;99.90
51327;DHT22;37412;52.836;6.362;2023-11-21T13:07:42;9.10;99.90
51327;DHT22;37412;52.836;6.362;2023-11-21T13:10:34;9.00;99.90
51327;DHT22;37412;52.836;6.362;2023-11-21T13:13:22;9.10;99.90
51327;DHT22;37412;52.836;6.362;2023-11-21T13:16:09;9.10;99.90
51327;DHT22;37412;52.836;6.362;2023-11-21T13:18:55;9.10;99.90
51327;DHT22;37412;52.836;6.362;2023-11-21T13:21:41;9.00;99.90
51327;DHT22;37412;52.836;6.362;2023-11-21T13:24:27;9.10;99.90
51327;DHT22;37412;52.836;6.362;2023-11-21T13:27:13;9.30;99.90
51327;DHT22;37412;52.836;6.362;2023-11-21T13:30:00;9.20;99.90
51327;DHT22;37412;52.836;6.362;2023-11-21T13:32:46;9.20;99.90
51327;DHT22;37412;52.836;6.362;2023-11-21T13:35:36;9.20;99.90
51327;DHT22;37412;52.836;6.362;2023-11-21T13:38:29;9.20;99.90
51327;DHT22;37412;52.836;6.362;2023-11-21T13:41:18;9.10;99.90
51327;DHT22;37412;52.836;6.362;2023-11-21T13:44:04;9.00;99.90
51327;DHT22;37412;52.836;6.362;2023-11-21T13:47:12;9.00;99.90
51327;DHT22;37412;52.836;6.362;2023-11-21T13:49:58;9.10;99.90
51327;DHT22;37412;52.836;6.362;2023-11-21T13:52:46;9.10;99.90
51327;DHT22;37412;52.836;6.362;2023-11-21T13:55:31;9.10;99.90
51327;DHT22;37412;52.836;6.362;2023-11-21T13:58:17;9.10;99.90
51327;DHT22;37412;52.836;6.362;2023-11-21T14:01:05;9.00;99.90
51327;DHT22;37412;52.836;6.362;2023-11-21T14:03:51;9.00;99.90
51327;DHT22;37412;52.836;6.362;2023-11-21T14:06:44;9.00;99.90
51327;DHT22;37412;52.836;6.362;2023-11-21T14:09:38;9.00;99.90
51327;DHT22;37412;52.836;6.362;2023-11-21T14:12:29;9.10;99.90
51327;DHT22;37412;52.836;6.362;2023-11-21T14:15:19;9.30;99.90
51327;DHT22;37412;52.836;6.362;2023-11-21T14:18:05;9.50;99.90
51327;DHT22;37412;52.836;6.362;2023-11-21T14:20:53;9.40;99.90
51327;DHT22;37412;52.836;6.362;2023-11-21T14:23:39;9.20;99.90
51327;DHT22;37412;52.836;6.362;2023-11-21T14:26:25;9.00;99.90
51327;DHT22;37412;52.836;6.362;2023-11-21T14:29:17;9.00;99.90
51327;DHT22;37412;52.836;6.362;2023-11-21T14:32:06;8.80;99.90
51327;DHT22;37412;52.836;6.362;2023-11-21T14:34:52;8.70;99.90
51327;DHT22;37412;52.836;6.362;2023-11-21T14:37:38;8.60;99.90
51327;DHT22;37412;52.836;6.362;2023-11-21T14:40:25;8.60;99.90
51327;DHT22;37412;52.836;6.362;2023-11-21T14:43:11;8.50;99.90
51327;DHT22;37412;52.836;6.362;2023-11-21T14:45:57;8.50;99.90
51327;DHT22;37412;52.836;6.362;2023-11-21T14:48:45;8.50;99.90
51327;DHT22;37412;52.836;6.362;2023-11-21T14:51:44;8.40;99.90
51327;DHT22;37412;52.836;6.362;2023-11-21T14:55:02;8.40;99.90
51327;DHT22;37412;52.836;6.362;2023-11-21T14:58:18;8.40;99.90
51327;DHT22;37412;52.836;6.362;2023-11-21T15:01:13;8.40;99.90
51327;DHT22;37412;52.836;6.362;2023-11-21T15:03:59;8.40;99.90
51327;DHT22;37412;52.836;6.362;2023-11-21T15:06:45;8.30;99.90
51327;DHT22;37412;52.836;6.362;2023-11-21T15:09:32;8.50;99.90
51327;DHT22;37412;52.836;6.362;2023-11-21T15:12:18;8.30;99.90
51327;DHT22;37412;52.836;6.362;2023-11-21T15:15:06;8.30;99.90
51327;DHT22;37412;52.836;6.362;2023-11-21T15:17:56;8.30;99.90
51327;DHT22;37412;52.836;6.362;2023-11-21T15:20:42;8.30;99.90
51327;DHT22;37412;52.836;6.362;2023-11-21T15:23:29;8.20;99.90
51327;DHT22;37412;52.836;6.362;2023-11-21T15:26:19;8.30;99.90
51327;DHT22;37412;52.836;6.362;2023-11-21T15:29:05;8.20;99.90
51327;DHT22;37412;52.836;6.362;2023-11-21T15:31:51;8.20;99.90
51327;DHT22;37412;52.836;6.362;2023-11-21T15:34:41;8.20;99.90
51327;DHT22;37412;52.836;6.362;2023-11-21T15:37:27;8.10;99.90
51327;DHT22;37412;52.836;6.362;2023-11-21T15:40:14;8.10;99.90
51327;DHT22;37412;52.836;6.362;2023-11-21T15:43:02;8.10;99.90
51327;DHT22;37412;52.836;6.362;2023-11-21T15:45:49;8.00;99.90
51327;DHT22;37412;52.836;6.362;2023-11-21T15:48:34;8.00;99.90
51327;DHT22;37412;52.836;6.362;2023-11-21T15:51:21;8.00;99.90
51327;DHT22;37412;52.836;6.362;2023-11-21T15:54:07;8.00;99.90
51327;DHT22;37412;52.836;6.362;2023-11-21T15:56:53;8.00;99.90
51327;DHT22;37412;52.836;6.362;2023-11-21T15:59:42;8.00;99.90
51327;DHT22;37412;52.836;6.362;2023-11-21T16:02:30;7.90;99.90
51327;DHT22;37412;52.836;6.362;2023-11-21T16:05:17;8.00;99.90
51327;DHT22;37412;52.836;6.362;2023-11-21T16:08:03;8.10;99.90
51327;DHT22;37412;52.836;6.362;2023-11-21T16:10:49;7.90;99.90
51327;DHT22;37412;52.836;6.362;2023-11-21T16:13:35;7.90;99.90
51327;DHT22;37412;52.836;6.362;2023-11-21T16:16:21;8.00;99.90
51327;DHT22;37412;52.836;6.362;2023-11-21T16:19:08;7.90;99.90
51327;DHT22;37412;52.836;6.362;2023-11-21T16:21:54;7.90;99.90
51327;DHT22;37412;52.836;6.362;2023-11-21T16:24:40;8.00;99.90
51327;DHT22;37412;52.836;6.362;2023-11-21T16:27:26;7.90;99.90
51327;DHT22;37412;52.836;6.362;2023-11-21T16:30:12;7.80;99.90
51327;DHT22;37412;52.836;6.362;2023-11-21T16:32:58;7.80;99.90
51327;DHT22;37412;52.836;6.362;2023-11-21T16:35:44;7.70;99.90
51327;DHT22;37412;52.836;6.362;2023-11-21T16:38:31;7.60;99.90
51327;DHT22;37412;52.836;6.362;2023-11-21T16:41:18;8.00;99.90
51327;DHT22;37412;52.836;6.362;2023-11-21T16:44:04;7.50;99.90
51327;DHT22;37412;52.836;6.362;2023-11-21T16:46:51;7.50;99.90
51327;DHT22;37412;52.836;6.362;2023-11-21T16:49:44;7.40;99.90
51327;DHT22;37412;52.836;6.362;2023-11-21T16:52:30;7.30;99.90
51327;DHT22;37412;52.836;6.362;2023-11-21T16:55:16;7.20;99.90
51327;DHT22;37412;52.836;6.362;2023-11-21T16:58:02;7.10;99.90
51327;DHT22;37412;52.836;6.362;2023-11-21T17:00:48;7.10;99.90
51327;DHT22;37412;52.836;6.362;2023-11-21T17:03:35;7.00;99.90
51327;DHT22;37412;52.836;6.362;2023-11-21T17:06:21;7.00;99.90
51327;DHT22;37412;52.836;6.362;2023-11-21T17:09:09;7.00;99.90
51327;DHT22;37412;52.836;6.362;2023-11-21T17:12:00;6.90;99.90
51327;DHT22;37412;52.836;6.362;2023-11-21T17:14:48;6.80;99.90
51327;DHT22;37412;52.836;6.362;2023-11-21T17:17:34;6.80;99.90
51327;DHT22;37412;52.836;6.362;2023-11-21T17:20:21;6.70;99.90
51327;DHT22;37412;52.836;6.362;2023-11-21T17:23:06;6.70;99.90
51327;DHT22;37412;52.836;6.362;2023-11-21T17:25:54;6.70;99.90
51327;DHT22;37412;52.836;6.362;2023-11-21T17:28:40;6.60;99.90
51327;DHT22;37412;52.836;6.362;2023-11-21T17:31:25;6.60;99.90
51327;DHT22;37412;52.836;6.362;2023-11-21T17:34:11;6.90;99.90
51327;DHT22;37412;52.836;6.362;2023-11-21T17:36:57;6.50;99.90
51327;DHT22;37412;52.836;6.362;2023-11-21T17:39:44;6.50;99.90
51327;DHT22;37412;52.836;6.362;2023-11-21T17:42:31;6.40;99.90
51327;DHT22;37412;52.836;6.362;2023-11-21T17:45:16;6.40;99.90
51327;DHT22;37412;52.836;6.362;2023-11-21T17:48:02;6.30;99.90
51327;DHT22;37412;52.836;6.362;2023-11-21T17:50:48;6.30;99.90
51327;DHT22;37412;52.836;6.362;2023-11-21T17:53:34;6.30;99.90
51327;DHT22;37412;52.836;6.362;2023-11-21T17:56:20;6.20;99.90
51327;DHT22;37412;52.836;6.362;2023-11-21T17:59:06;6.20;99.90
51327;DHT22;37412;52.836;6.362;2023-11-21T18:01:53;6.10;99.90
51327;DHT22;37412;52.836;6.362;2023-11-21T18:04:39;6.20;99.90
51327;DHT22;37412;52.836;6.362;2023-11-21T18:07:25;6.10;99.90